createdAt,value
2022-11-28T00:01:35.702Z,177.55
2022-11-28T00:04:04.148Z,158.50
2022-11-28T00:06:33.924Z,165.27
2022-11-28T00:09:02.356Z,177.80
2022-11-28T00:11:30.418Z,168.30
2022-11-28T00:13:58.447Z,165.05
2022-11-28T00:16:26.718Z,157.13
2022-11-28T00:18:55.891Z,172.50
2022-11-28T00:21:24.985Z,172.48
2022-11-28T00:23:54.637Z,148.15
2022-11-28T00:26:25.728Z,157.18
2022-11-28T00:28:54.324Z,177.38
2022-11-28T00:31:24.662Z,195.45
2022-11-28T00:33:53.341Z,150.77
2022-11-28T00:36:22.412Z,152.00
2022-11-28T00:38:51.287Z,151.05
2022-11-28T00:41:22.843Z,177.15
2022-11-28T00:43:52.226Z,166.40
2022-11-28T00:46:22.970Z,154.02
2022-11-28T00:48:51.349Z,156.05
2022-11-28T00:51:21.996Z,161.52
2022-11-28T00:53:52.259Z,169.90
2022-11-28T00:56:24.236Z,171.43
2022-11-28T00:58:52.567Z,143.88
2022-11-28T01:01:24.095Z,166.75
2022-11-28T01:03:54.330Z,175.60
2022-11-28T01:06:24.128Z,204.05
2022-11-28T01:08:52.753Z,229.23
2022-11-28T01:11:23.075Z,374.13
2022-11-28T01:13:51.477Z,223.85
2022-11-28T01:16:19.538Z,362.50
2022-11-28T01:18:47.583Z,422.83
2022-11-28T01:21:15.824Z,490.48
2022-11-28T01:23:44.433Z,580.95
2022-11-28T01:26:16.392Z,619.08
2022-11-28T01:28:45.992Z,437.80
2022-11-28T01:31:17.129Z,757.08
2022-11-28T01:33:45.335Z,445.08
2022-11-28T01:36:15.123Z,567.95
2022-11-28T01:38:43.469Z,565.35
2022-11-28T01:41:12.635Z,535.92
2022-11-28T01:44:00.401Z,313.23
2022-11-28T01:46:29.402Z,333.55
2022-11-28T01:49:00.377Z,248.32
2022-11-28T01:51:29.125Z,245.02
2022-11-28T01:53:57.545Z,133.05
2022-11-28T01:56:28.708Z,141.27
2022-11-28T01:59:03.791Z,173.60
2022-11-28T02:01:32.180Z,115.50
2022-11-28T02:04:00.423Z,124.38
2022-11-28T02:06:29.489Z,171.68
2022-11-28T02:08:57.773Z,155.70
2022-11-28T02:11:55.040Z,203.52
2022-11-28T02:14:41.855Z,112.05
2022-11-28T02:17:18.250Z,122.18
2022-11-28T02:20:22.736Z,233.48
2022-11-28T02:22:59.495Z,424.85
2022-11-28T02:26:06.842Z,395.08
2022-11-28T02:29:02.438Z,277.52
2022-11-28T02:31:53.458Z,253.55
2022-11-28T02:34:29.910Z,146.65
2022-11-28T02:37:04.635Z,183.20
2022-11-28T02:39:41.836Z,357.92
2022-11-28T02:42:16.720Z,171.77
2022-11-28T02:44:48.893Z,491.98
2022-11-28T02:47:25.110Z,405.55
2022-11-28T02:50:00.133Z,196.23
2022-11-28T02:52:34.546Z,183.38
2022-11-28T02:55:03.624Z,136.93
2022-11-28T02:57:37.682Z,148.27
2022-11-28T03:00:26.107Z,495.17
2022-11-28T03:03:09.519Z,347.02
2022-11-28T03:05:44.831Z,290.23
2022-11-28T03:08:28.028Z,342.67
2022-11-28T03:11:01.998Z,310.17
2022-11-28T03:13:39.977Z,158.95
2022-11-28T03:16:19.091Z,160.00
2022-11-28T03:18:59.823Z,308.23
2022-11-28T03:21:37.847Z,294.35
2022-11-28T03:24:11.561Z,224.32
2022-11-28T03:26:48.717Z,220.18
2022-11-28T03:29:22.068Z,191.43
2022-11-28T03:31:54.280Z,163.15
2022-11-28T03:34:28.622Z,193.30
2022-11-28T03:37:02.925Z,269.55
2022-11-28T03:39:34.863Z,355.67
2022-11-28T03:42:08.954Z,373.00
2022-11-28T03:44:41.225Z,316.67
2022-11-28T03:47:10.564Z,371.75
2022-11-28T03:49:43.423Z,384.75
2022-11-28T03:52:16.176Z,421.92
2022-11-28T03:54:52.031Z,388.20
2022-11-28T03:57:26.093Z,366.48
2022-11-28T03:59:55.431Z,328.70
2022-11-28T04:02:31.222Z,390.88
2022-11-28T04:05:04.773Z,324.60
2022-11-28T04:07:39.880Z,270.25
2022-11-28T04:10:15.926Z,313.05
2022-11-28T04:12:54.452Z,331.40
2022-11-28T04:15:30.782Z,315.08
2022-11-28T04:18:05.161Z,293.10
2022-11-28T04:20:41.311Z,207.10
2022-11-28T04:23:14.428Z,293.15
2022-11-28T04:25:48.050Z,187.27
2022-11-28T04:28:22.390Z,247.23
2022-11-28T04:30:53.663Z,215.20
2022-11-28T04:33:24.532Z,260.80
2022-11-28T04:35:56.714Z,265.40
2022-11-28T04:38:28.144Z,239.00
2022-11-28T04:41:01.711Z,315.15
2022-11-28T04:43:35.150Z,272.45
2022-11-28T04:46:08.574Z,231.57
2022-11-28T04:48:36.838Z,289.00
2022-11-28T04:51:15.134Z,453.13
2022-11-28T04:53:49.602Z,320.13
2022-11-28T04:56:22.866Z,216.23
2022-11-28T04:58:52.410Z,246.55
2022-11-28T05:01:25.481Z,324.20
2022-11-28T05:03:54.200Z,318.77
2022-11-28T05:06:32.828Z,427.27
2022-11-28T05:09:01.374Z,269.30
2022-11-28T05:11:29.963Z,493.48
2022-11-28T05:13:58.015Z,397.55
2022-11-28T05:16:26.141Z,360.83
2022-11-28T05:18:54.236Z,283.33
2022-11-28T05:21:22.536Z,223.70
2022-11-28T05:23:51.972Z,267.77
2022-11-28T05:26:21.756Z,329.83
2022-11-28T05:28:52.090Z,444.73
2022-11-28T05:31:22.235Z,421.30
2022-11-28T05:33:50.396Z,514.80
2022-11-28T05:36:19.357Z,620.00
2022-11-28T05:38:47.568Z,352.23
2022-11-28T05:41:23.156Z,405.27
2022-11-28T05:43:51.476Z,603.70
2022-11-28T05:46:20.351Z,470.90
2022-11-28T05:48:48.483Z,529.05
2022-11-28T05:51:16.523Z,444.88
2022-11-28T05:53:44.886Z,241.07
2022-11-28T05:56:15.423Z,286.85
2022-11-28T05:58:45.246Z,368.15
2022-11-28T06:01:15.309Z,445.20
2022-11-28T06:03:43.731Z,347.25
2022-11-28T06:06:14.428Z,593.53
2022-11-28T06:08:42.680Z,409.63
2022-11-28T06:11:11.033Z,494.83
2022-11-28T06:13:39.486Z,524.15
2022-11-28T06:16:11.278Z,790.78
2022-11-28T06:18:40.073Z,302.40
2022-11-28T06:21:09.354Z,555.72
2022-11-28T06:23:38.283Z,481.15
2022-11-28T06:26:07.554Z,438.70
2022-11-28T06:28:36.511Z,451.50
2022-11-28T06:31:05.013Z,859.15
2022-11-28T06:33:34.449Z,617.42
2022-11-28T06:36:03.442Z,888.50
2022-11-28T06:38:32.179Z,476.35
2022-11-28T06:41:03.314Z,783.13
2022-11-28T06:43:31.956Z,461.95
2022-11-28T06:46:00.220Z,443.10
2022-11-28T06:48:28.904Z,474.95
2022-11-28T06:51:03.417Z,450.08
2022-11-28T06:53:31.843Z,293.50
2022-11-28T06:55:59.980Z,413.17
2022-11-28T06:58:28.109Z,352.80
2022-11-28T07:00:56.756Z,350.42
2022-11-28T07:03:24.893Z,430.88
2022-11-28T07:05:52.977Z,397.40
2022-11-28T07:08:22.503Z,358.42
2022-11-28T07:10:50.626Z,290.52
2022-11-28T07:13:18.619Z,367.27
2022-11-28T07:15:50.026Z,585.63
2022-11-28T07:18:18.325Z,499.90
2022-11-28T07:20:46.328Z,676.72
2022-11-28T07:23:14.393Z,476.90
2022-11-28T07:25:43.843Z,321.88
2022-11-28T07:28:11.905Z,358.88
2022-11-28T07:30:39.965Z,401.73
2022-11-28T07:33:07.994Z,387.98
2022-11-28T07:35:36.016Z,320.83
2022-11-28T07:38:04.352Z,191.57
2022-11-28T07:40:32.386Z,318.13
2022-11-28T07:43:01.800Z,409.38
2022-11-28T07:45:47.512Z,264.42
2022-11-28T07:48:17.936Z,267.15
2022-11-28T07:50:45.975Z,296.63
2022-11-28T07:53:14.121Z,311.05
2022-11-28T07:55:42.240Z,424.48
2022-11-28T07:58:11.670Z,243.75
2022-11-28T08:00:39.700Z,252.20
2022-11-28T08:03:07.773Z,212.82
2022-11-28T08:05:35.831Z,175.40
2022-11-28T08:08:03.982Z,211.77
2022-11-28T08:10:32.031Z,264.20
2022-11-28T08:13:00.006Z,760.50
2022-11-28T08:15:31.789Z,342.83
2022-11-28T08:17:59.930Z,236.38
2022-11-28T08:20:28.043Z,152.15
2022-11-28T08:22:56.151Z,244.63
2022-11-28T08:25:24.204Z,215.07
2022-11-28T08:27:52.252Z,176.23
2022-11-28T08:30:20.474Z,137.32
2022-11-28T08:32:50.019Z,160.95
2022-11-28T08:35:18.156Z,141.77
2022-11-28T08:37:46.313Z,176.52
2022-11-28T08:40:15.353Z,450.60
2022-11-28T08:42:43.557Z,236.40
2022-11-28T08:45:12.984Z,147.02
2022-11-28T08:47:41.122Z,150.65
2022-11-28T08:50:11.241Z,205.52
2022-11-28T08:52:39.266Z,278.85
2022-11-28T08:55:07.914Z,134.98
2022-11-28T08:57:35.896Z,128.88
2022-11-28T09:00:06.389Z,112.20
2022-11-28T09:02:34.350Z,145.10
2022-11-28T09:05:02.378Z,135.43
2022-11-28T09:07:32.000Z,146.52
2022-11-28T09:10:00.094Z,144.38
2022-11-28T09:12:28.203Z,161.88
2022-11-28T09:14:56.260Z,147.65
2022-11-28T09:17:24.242Z,164.85
2022-11-28T09:19:52.270Z,133.02
2022-11-28T09:22:20.368Z,151.68
2022-11-28T09:24:49.833Z,139.95
2022-11-28T09:27:17.869Z,126.63
2022-11-28T09:29:45.893Z,93.43
2022-11-28T09:32:13.991Z,91.88
2022-11-28T09:34:42.170Z,82.70
2022-11-28T09:37:10.918Z,90.97
2022-11-28T09:39:50.644Z,64.75
2022-11-28T09:42:33.250Z,56.83
2022-11-28T09:45:04.536Z,69.35
2022-11-28T09:47:36.923Z,70.68
2022-11-28T09:50:10.863Z,68.93
2022-11-28T09:52:46.606Z,69.38
2022-11-28T09:55:19.941Z,65.85
2022-11-28T09:57:52.120Z,64.47
2022-11-28T10:00:22.892Z,58.30
2022-11-28T10:03:08.333Z,54.60
2022-11-28T10:05:42.264Z,57.67
2022-11-28T10:08:27.901Z,65.05
2022-11-28T10:11:03.543Z,64.43
2022-11-28T10:14:06.724Z,51.05
2022-11-28T10:16:41.904Z,60.58
2022-11-28T10:19:25.781Z,59.65
2022-11-28T10:22:06.394Z,59.05
2022-11-28T10:24:38.642Z,53.80
2022-11-28T10:27:07.429Z,51.45
2022-11-28T10:29:45.243Z,49.67
2022-11-28T10:32:17.708Z,45.97
2022-11-28T10:34:51.217Z,52.13
2022-11-28T10:37:25.336Z,53.22
2022-11-28T10:39:53.887Z,44.93
2022-11-28T10:42:29.116Z,44.47
2022-11-28T10:45:15.378Z,42.42
2022-11-28T10:48:07.386Z,44.47
2022-11-28T10:50:48.296Z,43.15
2022-11-28T10:53:25.229Z,40.83
2022-11-28T10:56:09.921Z,47.83
2022-11-28T10:58:47.100Z,40.28
2022-11-28T11:01:17.077Z,40.58
2022-11-28T11:03:45.282Z,41.88
2022-11-28T11:06:13.303Z,43.92
2022-11-28T11:08:42.380Z,43.08
2022-11-28T11:11:23.767Z,49.75
2022-11-28T11:14:00.861Z,45.72
2022-11-28T11:16:49.237Z,46.22
2022-11-28T11:19:28.378Z,45.63
2022-11-28T11:22:05.944Z,45.00
2022-11-28T11:24:34.096Z,48.78
2022-11-28T11:27:08.386Z,47.28
2022-11-28T11:29:38.711Z,52.33
2022-11-28T11:32:21.861Z,58.60
2022-11-28T11:34:50.380Z,74.75
2022-11-28T11:37:22.017Z,62.70
2022-11-28T11:39:51.999Z,54.40
2022-11-28T11:42:24.170Z,55.38
2022-11-28T11:44:52.413Z,53.60
2022-11-28T11:47:40.760Z,48.78
2022-11-28T11:50:18.555Z,52.33
2022-11-28T11:53:01.936Z,48.28
2022-11-28T11:55:32.054Z,50.63
2022-11-28T11:58:05.936Z,51.63
2022-11-28T12:00:39.074Z,56.20
2022-11-28T12:03:21.035Z,50.53
2022-11-28T12:08:49.691Z,53.83
2022-11-28T12:13:48.079Z,46.05
2022-11-28T12:16:38.013Z,48.03
2022-11-28T12:19:25.318Z,45.25
2022-11-28T12:22:07.909Z,51.08
2022-11-28T12:24:47.874Z,49.97
2022-11-28T12:27:28.542Z,44.60
2022-11-28T12:30:11.020Z,47.58
2022-11-28T12:32:48.414Z,52.42
2022-11-28T12:35:28.828Z,51.47
2022-11-28T12:38:13.524Z,44.40
2022-11-28T12:40:53.481Z,47.47
2022-11-28T12:43:37.789Z,48.58
2022-11-28T12:46:16.409Z,43.35
2022-11-28T12:48:58.635Z,45.47
2022-11-28T12:51:38.284Z,42.28
2022-11-28T12:54:25.966Z,38.58
2022-11-28T12:57:00.096Z,39.03
2022-11-28T12:59:36.290Z,41.13
2022-11-28T13:02:25.356Z,40.38
2022-11-28T13:05:26.174Z,40.00
2022-11-28T13:08:17.002Z,36.95
2022-11-28T13:10:52.476Z,30.77
2022-11-28T13:13:25.271Z,30.48
2022-11-28T13:16:04.688Z,29.15
2022-11-28T13:18:41.647Z,26.63
2022-11-28T13:21:28.423Z,30.50
2022-11-28T13:24:07.075Z,34.53
2022-11-28T13:26:44.594Z,31.60
2022-11-28T13:29:27.230Z,32.15
2022-11-28T13:32:02.644Z,30.38
2022-11-28T13:34:31.410Z,31.20
2022-11-28T13:40:01.292Z,36.45
2022-11-28T13:43:02.485Z,25.58
2022-11-28T13:50:59.747Z,27.42
2022-11-28T13:53:28.023Z,38.53
2022-11-28T13:56:24.828Z,31.98
2022-11-28T13:58:57.029Z,30.50
2022-11-28T14:01:27.334Z,28.70
2022-11-28T14:04:08.811Z,25.63
2022-11-28T14:06:45.603Z,24.55
2022-11-28T14:09:30.862Z,31.45
2022-11-28T14:14:53.775Z,29.15
2022-11-28T14:17:39.024Z,33.15
2022-11-28T14:20:20.573Z,34.97
2022-11-28T14:23:03.202Z,46.85
2022-11-28T14:25:33.919Z,38.88
2022-11-28T14:28:07.073Z,40.33
2022-11-28T14:30:38.339Z,36.92
2022-11-28T14:33:16.141Z,39.67
2022-11-28T14:36:06.816Z,49.53
2022-11-28T14:38:46.004Z,40.55
2022-11-28T14:41:15.423Z,37.92
2022-11-28T14:43:46.596Z,42.03
2022-11-28T14:46:25.282Z,45.92
2022-11-28T14:49:18.207Z,59.22
2022-11-28T14:55:22.346Z,76.50
2022-11-28T14:57:58.195Z,95.10
2022-11-28T15:00:29.777Z,79.25
2022-11-28T15:03:20.801Z,61.67
2022-11-28T15:05:52.027Z,61.63
2022-11-28T15:08:55.241Z,65.47
2022-11-28T15:11:48.148Z,73.53
2022-11-28T15:14:22.278Z,293.70
2022-11-28T15:16:56.269Z,85.27
2022-11-28T15:19:28.417Z,81.32
2022-11-28T15:21:57.103Z,71.68
2022-11-28T15:24:28.001Z,80.43
2022-11-28T15:26:58.340Z,67.60
2022-11-28T15:29:28.620Z,73.78
2022-11-28T15:31:59.784Z,69.75
2022-11-28T15:34:31.258Z,68.32
2022-11-28T15:37:01.544Z,65.55
2022-11-28T15:39:35.940Z,71.00
2022-11-28T15:42:06.346Z,62.60
2022-11-28T15:44:34.987Z,64.45
2022-11-28T15:47:05.095Z,70.65
2022-11-28T15:49:35.944Z,98.28
2022-11-28T15:52:06.188Z,142.90
2022-11-28T15:54:41.293Z,116.75
2022-11-28T15:57:20.408Z,73.00
2022-11-28T15:59:48.577Z,89.30
2022-11-28T16:02:23.691Z,74.30
2022-11-28T16:04:56.242Z,76.30
2022-11-28T16:07:24.362Z,86.50
2022-11-28T16:09:58.133Z,72.13
2022-11-28T16:12:27.574Z,71.65
2022-11-28T16:15:01.480Z,62.50
2022-11-28T16:17:33.466Z,55.40
2022-11-28T16:20:03.781Z,73.00
2022-11-28T16:22:37.148Z,59.25
2022-11-28T16:25:22.215Z,66.55
2022-11-28T16:27:53.302Z,62.78
2022-11-28T16:30:36.996Z,59.15
2022-11-28T16:33:38.575Z,71.55
2022-11-28T16:36:11.707Z,75.07
2022-11-28T16:38:40.309Z,74.20
2022-11-28T16:41:16.912Z,71.95
2022-11-28T16:43:50.455Z,83.32
2022-11-28T16:46:22.911Z,89.53
2022-11-28T16:49:00.216Z,94.93
2022-11-28T16:51:32.754Z,141.18
2022-11-28T16:54:01.584Z,283.75
2022-11-28T16:56:44.930Z,133.13
2022-11-28T16:59:15.063Z,110.78
2022-11-28T17:01:45.042Z,139.57
2022-11-28T17:04:22.644Z,108.45
2022-11-28T17:06:51.187Z,109.38
2022-11-28T17:09:19.548Z,110.88
2022-11-28T17:11:52.058Z,105.35
2022-11-28T17:14:20.202Z,95.07
2022-11-28T17:16:48.224Z,88.03
2022-11-28T17:19:16.290Z,87.70
2022-11-28T17:21:48.051Z,84.18
2022-11-28T17:24:19.470Z,79.82
2022-11-28T17:26:47.924Z,112.00
2022-11-28T17:29:16.958Z,122.47
2022-11-28T17:31:47.038Z,124.00
2022-11-28T17:34:17.912Z,117.75
2022-11-28T17:36:47.739Z,119.97
2022-11-28T17:39:17.002Z,113.60
2022-11-28T17:41:46.861Z,105.60
2022-11-28T17:44:18.725Z,114.10
2022-11-28T17:46:47.230Z,105.18
2022-11-28T17:49:15.562Z,118.18
2022-11-28T17:51:44.291Z,133.95
2022-11-28T17:54:19.245Z,168.93
2022-11-28T17:59:17.280Z,133.75
2022-11-28T18:01:45.816Z,127.22
2022-11-28T18:04:14.143Z,112.88
2022-11-28T18:06:44.093Z,95.22
2022-11-28T18:09:14.508Z,82.93
2022-11-28T18:11:43.064Z,76.85
2022-11-28T18:14:11.344Z,74.15
2022-11-28T18:16:43.727Z,72.55
2022-11-28T18:19:12.164Z,79.38
2022-11-28T18:21:40.357Z,73.30
2022-11-28T18:24:09.039Z,72.40
2022-11-28T18:26:38.532Z,75.90
2022-11-28T18:29:07.201Z,89.15
2022-11-28T18:31:35.877Z,86.65
2022-11-28T18:34:06.141Z,85.10
2022-11-28T18:36:35.338Z,82.72
2022-11-28T18:39:06.989Z,82.18
2022-11-28T18:41:35.190Z,83.47
2022-11-28T18:44:06.260Z,85.85
2022-11-28T18:46:35.300Z,88.20
2022-11-28T18:49:03.578Z,86.38
2022-11-28T18:51:33.240Z,78.72
2022-11-28T18:54:04.290Z,90.78
2022-11-28T18:56:32.485Z,89.68
2022-11-28T18:59:00.725Z,89.20
2022-11-28T19:01:32.481Z,86.93
2022-11-28T19:04:01.923Z,83.07
2022-11-28T19:06:30.953Z,88.43
2022-11-28T19:09:01.854Z,86.38
2022-11-28T19:11:30.611Z,93.13
2022-11-28T19:13:59.228Z,85.38
2022-11-28T19:16:30.166Z,85.10
2022-11-28T19:18:59.055Z,84.70
2022-11-28T19:21:28.732Z,91.38
2022-11-28T19:23:58.058Z,79.60
2022-11-28T19:26:27.980Z,81.50
2022-11-28T19:28:56.741Z,85.75
2022-11-28T19:31:27.286Z,94.32
2022-11-28T19:34:01.284Z,80.47
2022-11-28T19:36:30.683Z,74.50
2022-11-28T19:38:59.176Z,66.93
2022-11-28T19:41:28.126Z,62.28
2022-11-28T19:43:56.256Z,64.70
2022-11-28T19:46:24.407Z,60.67
2022-11-28T19:48:52.749Z,59.25
2022-11-28T19:51:22.145Z,72.78
2022-11-28T19:53:50.250Z,59.83
2022-11-28T19:56:20.271Z,61.38
2022-11-28T19:58:48.671Z,60.42
2022-11-28T20:01:18.557Z,62.75
2022-11-28T20:03:48.765Z,64.90
2022-11-28T20:06:19.257Z,62.33
2022-11-28T20:08:49.772Z,73.57
2022-11-28T20:11:19.446Z,98.63
2022-11-28T20:13:48.615Z,86.50
2022-11-28T20:16:18.636Z,75.80
2022-11-28T20:18:47.075Z,76.80
2022-11-28T20:21:17.558Z,87.82
2022-11-28T20:23:47.156Z,89.35
2022-11-28T20:26:17.567Z,83.07
2022-11-28T20:28:45.725Z,77.38
2022-11-28T20:31:20.114Z,79.50
2022-11-28T20:33:48.231Z,89.18
2022-11-28T20:36:18.015Z,81.13
2022-11-28T20:38:46.241Z,95.25
2022-11-28T20:41:17.442Z,94.28
2022-11-28T20:43:45.980Z,99.63
2022-11-28T20:46:16.750Z,94.63
2022-11-28T20:48:45.376Z,93.47
2022-11-28T20:51:15.495Z,80.03
2022-11-28T20:53:43.833Z,77.40
2022-11-28T20:56:14.793Z,86.50
2022-11-28T20:58:44.867Z,76.70
2022-11-28T21:01:15.907Z,87.47
2022-11-28T21:03:44.342Z,81.45
2022-11-28T21:06:12.521Z,80.55
2022-11-28T21:08:41.050Z,85.97
2022-11-28T21:11:10.603Z,68.50
2022-11-28T21:13:39.199Z,70.85
2022-11-28T21:16:10.543Z,69.63
2022-11-28T21:18:40.074Z,69.03
2022-11-28T21:21:09.761Z,73.95
2022-11-28T21:23:38.229Z,83.22
2022-11-28T21:26:08.652Z,90.40
2022-11-28T21:28:37.594Z,98.78
2022-11-28T21:31:09.620Z,86.43
2022-11-28T21:33:37.782Z,85.90
2022-11-28T21:36:08.027Z,93.20
2022-11-28T21:38:36.837Z,80.53
2022-11-28T21:41:05.063Z,81.47
2022-11-28T21:43:33.056Z,80.72
2022-11-28T21:46:04.519Z,80.70
2022-11-28T21:48:37.092Z,78.88
2022-11-28T21:51:06.016Z,87.55
2022-11-28T21:53:34.593Z,86.30
2022-11-28T21:56:04.470Z,89.45
2022-11-28T21:58:32.974Z,94.57
2022-11-28T22:01:02.680Z,86.80
2022-11-28T22:03:32.537Z,79.70
2022-11-28T22:06:05.141Z,89.18
2022-11-28T22:08:33.647Z,83.95
2022-11-28T22:11:04.928Z,88.00
2022-11-28T22:13:33.398Z,91.63
2022-11-28T22:16:01.585Z,82.72
2022-11-28T22:18:30.290Z,90.82
2022-11-28T22:21:06.503Z,124.63
2022-11-28T22:23:39.030Z,95.43
2022-11-28T22:26:08.608Z,103.32
2022-11-28T22:28:38.206Z,87.65
2022-11-28T22:31:09.938Z,96.18
2022-11-28T22:33:38.319Z,99.38
2022-11-28T22:36:10.890Z,97.55
2022-11-28T22:38:39.702Z,88.03
2022-11-28T22:41:09.281Z,91.85
2022-11-28T22:43:37.751Z,96.85
2022-11-28T22:46:06.206Z,103.10
2022-11-28T22:48:35.247Z,100.28
2022-11-28T22:51:09.976Z,101.30
2022-11-28T22:53:38.004Z,97.97
2022-11-28T22:56:06.594Z,106.43
2022-11-28T22:58:40.980Z,100.18
2022-11-28T23:01:12.781Z,105.22
2022-11-28T23:03:41.026Z,117.13
2022-11-28T23:06:13.735Z,109.63
2022-11-28T23:08:44.106Z,114.57
2022-11-28T23:11:14.649Z,112.60
2022-11-28T23:13:43.345Z,111.20
2022-11-28T23:16:13.070Z,109.00
2022-11-28T23:18:41.291Z,106.90
2022-11-28T23:21:11.306Z,114.45
2022-11-28T23:23:39.813Z,125.45
2022-11-28T23:26:10.607Z,118.78
2022-11-28T23:28:39.388Z,118.15
2022-11-28T23:31:09.000Z,125.47
2022-11-28T23:33:37.763Z,123.25
2022-11-28T23:36:15.180Z,120.93
2022-11-28T23:38:44.009Z,114.43
2022-11-28T23:41:12.848Z,124.10
2022-11-28T23:43:41.307Z,110.55
2022-11-28T23:46:11.333Z,120.53
2022-11-28T23:48:39.505Z,123.63
2022-11-28T23:51:08.636Z,116.85
2022-11-28T23:53:38.174Z,113.28
2022-11-28T23:56:08.241Z,110.50
2022-11-28T23:58:36.525Z,112.72
